Historique des mesures à Cassis (13260), France
Quotidien Résumé Mai 6, 2017 Unités:  US    Métrique   Métrique/US
« Précédent (Jour)
Suivant (Jour) »
Quotidien Hebdomadaire Mensuel Annuel Période au choix
  Maximum: Minimum: Moyenne:
Température: 32 °F 56.1 °F 61.3 °F
Point de rosée: 32 °F 39.7 °F 45.9 °F
Humidité: Humidity % 41 % 55 %
Vitesse du vent: WindSpeedKMH mph 0.0 mph 9.9 mph
Rafales: WindSpeedGustKMH mph - -
Vent:- - South
Pression: 0 in 29.7 in -
Précipitations: 154.94 in    
Historical Graphs
 
 
Mesures pour : Mai 6, 2017
Heure Temperature Point de rosée Pression Vent Vitesse du vent Rafales Humidité Pluie (par heure) Conditions
32 °F 32 °F 0 in Calm     Humidity % 0 in SoftwareType W/m2
00:10 61.9 °F 43.5 °F 29.8 in ENE 1.4 mph 1.4 mph 51 % 0 in open2300-1.11 W/m2
01:10 61.5 °F 42.3 °F 29.8 in ENE 5.5 mph 5.5 mph 49 % 0 in open2300-1.11 W/m2
02:10 60.6 °F 41.4 °F 29.8 in East 2.6 mph 2.6 mph 49 % 0 in open2300-1.11 W/m2
03:10 63.3 °F 39.7 °F 29.7 in ENE 4.0 mph 10.8 mph 42 % 0 in open2300-1.11 W/m2
04:10 63.9 °F 40.8 °F 29.8 in SE 6.8 mph 11.1 mph 43 % 0 in open2300-1.11 W/m2
05:11 64.6 °F 41.5 °F 29.7 in ESE 5.0 mph 5.8 mph 43 % 0 in open2300-1.11 W/m2
06:10 65.3 °F 41 °F 29.7 in ESE 9.3 mph 13.7 mph 41 % 0 in open2300-1.11 W/m2
07:10 65.7 °F 41.4 °F 29.7 in SSE 2.6 mph 20.6 mph 41 % 0 in open2300-1.11 W/m2
08:10 66.2 °F 43 °F 29.7 in ESE 4.7 mph 11.9 mph 43 % 0 in open2300-1.11 W/m2
09:10 67.3 °F 45.1 °F 29.7 in SSW 3.5 mph 4.0 mph 45 % 0 in open2300-1.11 W/m2
10:10 65.8 °F 46.2 °F 29.7 in SE 7.2 mph 8.2 mph 49 % 0 in open2300-1.11 W/m2
11:10 62.1 °F 50.2 °F 29.7 in SE 10.1 mph 10.1 mph 65 % 0 in open2300-1.11 W/m2
12:10 57.7 °F 51.3 °F 29.8 in NNE 4.0 mph 6.8 mph 79 % 142.24 in open2300-1.11 W/m2
13:11 58.6 °F 52.9 °F 29.7 in Calm   1.4 mph 81 % 0 in open2300-1.11 W/m2
14:10 56.1 °F 50.7 °F 29.8 in NW 30.6 mph 30.6 mph 82 % 12.7 in open2300-1.11 W/m2
15:10 59.2 °F 52.7 °F 29.8 in WNW 17.2 mph 19.5 mph 79 % 0 in open2300-1.11 W/m2
16:10 63.1 °F 52.9 °F 29.8 in NNW 10.8 mph 30.2 mph 69 % 0 in open2300-1.11 W/m2
17:10 65.1 °F 51.3 °F 29.8 in NW 16.9 mph 19.5 mph 61 % 0 in open2300-1.11 W/m2
18:10 64.6 °F 49.8 °F 29.8 in NW 18.0 mph 20.6 mph 59 % 0 in open2300-1.11 W/m2
19:10 64 °F 47.5 °F 29.8 in NNW 27.4 mph 27.4 mph 55 % 0 in open2300-1.11 W/m2
20:10 63.1 °F 48 °F 29.9 in North 14.3 mph 36.4 mph 58 % 0 in open2300-1.11 W/m2
21:10 61.5 °F 48.4 °F 29.9 in NW 14.3 mph 14.3 mph 62 % 0 in open2300-1.11 W/m2
22:10 60.6 °F 48 °F 29.9 in NW 23.3 mph 23.3 mph 63 % 0 in open2300-1.11 W/m2
23:11 60.4 °F 46.9 °F 29.9 in NNE 7.2 mph 15.8 mph 61 % 0 in open2300-1.11 W/m2
Observations météo à CASSIS
WU-History script by Weather Underground - 1 mb